Time;durP1;ratioP1;P1;durP2;ratioP2;P2;SDS_P1;SDS_P2;PMS_P1;PMS_P2;Temp;Humidity;BMP_temperature;BMP_pressure;BME280_temperature;BME280_humidity;BME280_pressure;Samples;Min_cycle;Max_cycle;Signal;HPM_P1;HPM_P2
2024/02/26 00:01:06;;;;;;;7.80;4.57;;;4.00;77.80;;;3.32;79.21;96296.88;5052767;28;20557;-73
2024/02/26 00:03:35;;;;;;;4.80;4.00;;;3.90;78.00;;;2.90;80.22;96235.84;5048214;28;20550;-74
2024/02/26 00:06:03;;;;;;;8.97;5.00;;;3.90;78.20;;;3.17;80.66;96296.31;5048775;28;20467;-72
2024/02/26 00:08:30;;;;;;;8.20;4.77;;;3.80;78.60;;;3.27;81.37;96288.69;5061155;28;20945;-72
2024/02/26 00:10:59;;;;;;;5.70;4.90;;;3.80;79.50;;;3.31;81.54;96281.03;5048647;28;20445;-72
2024/02/26 00:13:26;;;;;;;6.87;5.17;;;3.80;79.60;;;3.28;81.52;96284.97;5048489;28;20471;-72
2024/02/26 00:15:53;;;;;;;8.40;4.90;;;3.90;79.90;;;3.15;81.97;96269.81;5076739;28;20457;-73
2024/02/26 00:18:20;;;;;;;6.90;5.67;;;3.90;80.00;;;3.29;82.65;96291.94;5038754;28;20450;-73
2024/02/26 00:20:48;;;;;;;6.20;5.60;;;4.00;80.20;;;3.23;82.42;96268.75;5056037;28;20456;-73
2024/02/26 00:23:16;;;;;;;7.20;5.00;;;4.00;80.10;;;3.27;82.77;96278.00;5061152;28;20458;-72
2024/02/26 00:25:43;;;;;;;7.63;5.80;;;4.00;80.40;;;3.29;83.13;96283.94;5052727;28;20450;-73
2024/02/26 00:28:14;;;;;;;7.33;5.47;;;4.00;80.40;;;3.29;82.76;96270.59;5049838;28;20711;-74
2024/02/26 00:30:42;;;;;;;7.10;5.67;;;4.00;80.50;;;3.31;83.80;96276.53;5056404;28;20491;-73
2024/02/26 00:33:10;;;;;;;7.77;6.10;;;4.00;80.90;;;3.29;83.91;96281.28;5052367;28;20479;-73
2024/02/26 00:35:37;;;;;;;8.90;6.30;;;4.00;81.10;;;3.26;83.94;96271.00;5055037;28;20446;-73
2024/02/26 00:38:05;;;;;;;8.80;5.87;;;4.00;81.70;;;3.25;84.84;96269.38;5051113;28;20464;-71
2024/02/26 00:40:32;;;;;;;9.47;6.37;;;4.00;81.70;;;3.21;84.76;96255.66;5074809;28;21160;-73
2024/02/26 00:43:00;;;;;;;10.03;7.07;;;4.00;82.00;;;3.24;85.35;96265.06;5050624;28;20460;-74
2024/02/26 00:45:29;;;;;;;9.37;7.13;;;4.00;82.50;;;3.32;85.24;96255.97;5053692;28;20483;-72
2024/02/26 00:47:56;;;;;;;11.47;7.70;;;4.00;82.70;;;3.25;86.79;96256.84;5041613;28;21092;-73
2024/02/26 00:50:23;;;;;;;8.03;6.70;;;4.00;83.30;;;3.23;86.91;96255.41;5048831;28;20441;-73
2024/02/26 00:52:51;;;;;;;11.70;7.50;;;4.00;83.50;;;3.16;87.06;96233.28;5049521;28;20549;-74
2024/02/26 00:55:18;;;;;;;9.60;7.60;;;4.00;84.00;;;3.25;87.82;96259.50;5046678;28;20474;-75
2024/02/26 00:57:45;;;;;;;10.60;8.20;;;4.00;84.50;;;3.19;86.57;96232.84;5047598;28;20952;-72
2024/02/26 01:00:14;;;;;;;9.17;7.47;;;4.00;84.50;;;3.23;87.02;96256.25;5076235;28;20460;-73
2024/02/26 01:02:43;;;;;;;11.70;8.00;;;4.00;84.40;;;3.19;87.33;96265.72;5066468;28;20450;-72
2024/02/26 01:05:10;;;;;;;10.13;6.70;;;4.00;84.90;;;3.23;87.89;96266.09;5066563;28;20521;-73
2024/02/26 01:07:37;;;;;;;12.17;7.40;;;3.90;84.80;;;3.14;88.23;96259.38;5048704;28;20465;-73
2024/02/26 01:10:05;;;;;;;11.07;7.30;;;3.80;85.10;;;3.01;88.63;96254.88;5059666;28;20445;-72
2024/02/26 01:12:33;;;;;;;11.37;8.10;;;3.60;85.50;;;2.92;89.62;96259.63;5048549;28;20509;-74
2024/02/26 01:15:01;;;;;;;12.70;7.53;;;3.50;87.00;;;3.01;88.98;96266.38;5052254;28;20473;-74
2024/02/26 01:17:28;;;;;;;9.37;7.63;;;3.60;87.80;;;2.90;90.09;96267.03;5057419;28;20449;-71
2024/02/26 01:19:57;;;;;;;11.37;7.43;;;3.40;88.00;;;2.90;89.80;96267.03;5062689;28;20506;-72
2024/02/26 01:22:24;;;;;;;11.27;6.80;;;3.40;89.00;;;2.88;90.11;96263.75;5044453;28;20468;-72
2024/02/26 01:24:52;;;;;;;12.67;7.90;;;3.40;88.80;;;2.73;90.34;96267.47;5058632;28;20879;-74
2024/02/26 01:27:19;;;;;;;9.77;8.00;;;3.30;88.60;;;2.46;90.97;96253.38;5072835;28;20502;-73
2024/02/26 01:29:47;;;;;;;12.03;8.13;;;3.20;89.50;;;2.54;92.03;96269.13;5047194;28;20461;-72
2024/02/26 01:32:14;;;;;;;8.23;7.30;;;3.00;90.30;;;2.45;92.63;96263.22;5047675;28;20455;-72
2024/02/26 01:34:41;;;;;;;13.40;8.00;;;3.00;90.80;;;2.53;93.91;96272.84;5048080;28;20574;-72
2024/02/26 01:37:10;;;;;;;13.57;8.80;;;3.10;91.30;;;2.58;93.86;96264.22;5045915;28;20469;-71
2024/02/26 01:39:37;;;;;;;10.90;7.67;;;3.10;91.80;;;2.67;95.04;96266.47;5045517;28;20462;-73
2024/02/26 01:42:05;;;;;;;13.07;6.90;;;3.20;92.50;;;2.69;94.75;96266.25;5054779;28;20453;-72
2024/02/26 01:44:32;;;;;;;13.27;8.63;;;3.20;92.70;;;2.74;95.06;96242.44;5052243;28;20926;-73
2024/02/26 01:47:01;;;;;;;11.20;7.63;;;3.30;93.00;;;2.82;92.76;96254.72;5048060;28;20454;-72
2024/02/26 01:49:29;;;;;;;10.90;8.20;;;3.40;92.40;;;2.88;92.36;96247.75;5045687;28;20445;-73
2024/02/26 01:51:57;;;;;;;9.87;8.80;;;3.50;91.50;;;2.90;91.41;96238.50;5043794;28;20450;-72
2024/02/26 01:54:27;;;;;;;11.00;8.30;;;3.50;90.70;;;2.99;91.24;96247.09;5055210;28;20481;-72
2024/02/26 01:56:54;;;;;;;11.00;8.40;;;3.60;90.20;;;3.04;90.01;96252.63;5044939;28;20789;-73
2024/02/26 01:59:21;;;;;;;12.40;8.40;;;3.70;89.60;;;2.88;90.51;96240.56;5040803;28;20469;-73
2024/02/26 02:01:56;;;;;;;10.53;7.30;;;3.70;89.10;;;2.75;91.07;96238.75;5057073;28;20452;-74
2024/02/26 02:04:25;;;;;;;12.90;8.00;;;3.60;88.80;;;2.74;91.99;96245.09;5055346;28;20452;-73
2024/02/26 02:06:53;;;;;;;11.50;8.30;;;3.50;89.20;;;2.80;91.96;96249.59;5047134;28;20446;-72
2024/02/26 02:09:22;;;;;;;12.30;7.30;;;3.60;89.60;;;2.74;91.55;96245.09;5046610;28;20511;-73
2024/02/26 02:11:51;;;;;;;12.00;8.47;;;3.50;89.40;;;2.83;92.09;96251.88;5046455;28;20460;-74
2024/02/26 02:14:19;;;;;;;10.87;8.23;;;3.50;90.10;;;2.79;92.17;96245.28;5053833;28;20480;-74
2024/02/26 02:16:46;;;;;;;9.33;7.03;;;3.50;90.10;;;2.79;91.00;96234.63;5055203;28;20450;-72
2024/02/26 02:19:15;;;;;;;11.90;7.80;;;3.60;89.60;;;2.75;90.72;96237.94;5038290;28;20480;-73
2024/02/26 02:21:43;;;;;;;11.90;7.67;;;3.60;88.90;;;2.76;90.97;96237.72;5053198;28;20589;-72
2024/02/26 02:24:10;;;;;;;9.23;7.17;;;3.60;88.70;;;2.81;90.71;96245.94;5050775;28;20795;-73
2024/02/26 02:26:37;;;;;;;11.40;7.10;;;3.60;88.80;;;2.94;89.93;96250.41;5045220;28;21145;-72
2024/02/26 02:29:06;;;;;;;11.27;6.90;;;3.60;88.40;;;2.65;90.05;96217.00;5049555;28;20928;-71
2024/02/26 02:31:34;;;;;;;13.20;6.77;;;3.60;88.10;;;2.96;89.67;96247.53;5049640;28;20573;-72
2024/02/26 02:34:02;;;;;;;12.43;7.57;;;3.60;88.40;;;2.93;89.75;96245.25;5045713;28;20821;-71
2024/02/26 02:36:29;;;;;;;8.57;6.43;;;3.60;88.10;;;2.88;90.47;96245.06;5048953;28;20555;-72
2024/02/26 02:39:01;;;;;;;9.63;7.43;;;3.60;88.20;;;2.90;90.59;96251.03;5039336;28;20453;-72
2024/02/26 02:41:29;;;;;;;9.93;6.80;;;3.60;88.30;;;2.89;89.98;96249.38;5048675;28;21082;-73
2024/02/26 02:43:57;;;;;;;9.40;7.20;;;3.50;88.50;;;2.80;90.69;96252.25;5063876;28;20817;-72
2024/02/26 02:46:25;;;;;;;10.83;7.00;;;3.50;89.00;;;2.78;91.60;96253.53;5052844;28;21293;-71
2024/02/26 02:48:52;;;;;;;10.00;6.50;;;3.40;89.80;;;2.77;91.79;96244.69;5043588;28;20455;-72
2024/02/26 02:51:19;;;;;;;11.03;7.60;;;3.30;90.10;;;2.88;90.63;96253.09;5073497;28;20458;-71
2024/02/26 02:53:46;;;;;;;9.17;7.17;;;3.40;90.50;;;2.97;90.11;96241.16;5046216;28;20790;-71
2024/02/26 02:56:15;;;;;;;8.53;6.97;;;3.50;90.50;;;3.04;88.64;96236.59;5052913;28;20456;-72
2024/02/26 02:58:42;;;;;;;9.57;7.00;;;3.60;89.80;;;3.16;88.20;96246.63;5048674;28;20501;-72
2024/02/26 03:01:09;;;;;;;12.17;7.50;;;3.70;88.60;;;3.17;88.12;96250.94;5034503;28;20456;-70
2024/02/26 03:03:37;;;;;;;9.60;6.73;;;3.80;87.70;;;3.13;88.93;96242.53;5047302;28;20454;-71
2024/02/26 03:06:04;;;;;;;10.93;7.60;;;3.80;87.40;;;3.19;88.62;96248.88;5046362;28;20453;-72
2024/02/26 03:08:31;;;;;;;15.07;8.27;;;3.80;87.50;;;3.13;88.12;96234.50;5049756;28;20867;-72
2024/02/26 03:11:00;;;;;;;10.93;7.80;;;3.80;87.30;;;3.12;88.70;96240.88;5068912;28;20450;-72
2024/02/26 03:13:29;;;;;;;9.77;6.93;;;3.80;87.10;;;3.05;89.15;96240.91;5044840;28;20477;-71
2024/02/26 03:15:57;;;;;;;10.40;7.77;;;3.80;87.00;;;3.07;88.84;96238.84;5024105;28;21138;-72
2024/02/26 03:18:24;;;;;;;10.60;8.23;;;3.90;87.10;;;3.13;88.97;96239.06;5067798;28;20459;-72
2024/02/26 03:20:52;;;;;;;12.60;7.47;;;3.90;87.00;;;3.19;88.72;96227.50;5043780;28;20448;-71
2024/02/26 03:23:20;;;;;;;9.40;7.23;;;3.90;87.00;;;3.28;88.30;96230.75;5053981;28;21314;-71
2024/02/26 03:25:50;;;;;;;10.10;7.63;;;4.00;86.90;;;3.30;88.56;96224.19;5038646;28;20464;-71
2024/02/26 03:28:17;;;;;;;11.37;7.83;;;4.00;86.60;;;3.02;87.50;96209.31;5045994;28;20465;-72
2024/02/26 03:30:48;;;;;;;9.93;7.67;;;4.00;86.20;;;3.37;87.89;96232.97;5053645;28;20787;-71
2024/02/26 03:33:16;;;;;;;10.20;7.33;;;4.10;86.20;;;3.42;87.46;96228.84;5048007;28;21213;-70
2024/02/26 03:35:43;;;;;;;10.90;7.70;;;4.10;86.60;;;3.47;86.73;96229.81;5052268;28;20808;-71
2024/02/26 03:38:11;;;;;;;10.50;8.37;;;4.10;86.30;;;3.47;87.21;96234.38;5059821;28;20489;-71
2024/02/26 03:40:38;;;;;;;10.53;7.33;;;4.10;85.70;;;3.38;86.52;96231.94;5045296;28;20451;-73
2024/02/26 03:43:07;;;;;;;10.60;7.23;;;4.10;85.80;;;3.40;87.14;96239.75;5046367;28;20930;-72
2024/02/26 03:45:34;;;;;;;10.03;7.20;;;4.10;85.60;;;3.44;86.42;96237.47;5044959;28;20446;-71
2024/02/26 03:48:03;;;;;;;10.50;7.30;;;4.10;85.50;;;3.44;85.80;96235.59;5044604;28;20523;-73
2024/02/26 03:50:30;;;;;;;10.13;7.47;;;4.00;85.40;;;3.37;86.19;96235.63;5045890;28;20793;-72
2024/02/26 03:52:58;;;;;;;12.17;7.73;;;4.00;85.40;;;3.33;85.74;96237.09;5043855;28;20492;-72
2024/02/26 03:55:32;;;;;;;8.83;7.17;;;4.00;85.20;;;3.30;86.05;96245.53;5048444;28;20478;-73
2024/02/26 03:57:59;;;;;;;11.60;7.60;;;3.90;85.30;;;3.21;86.43;96241.47;5055650;28;20510;-71
2024/02/26 04:00:28;;;;;;;9.87;6.90;;;3.80;85.40;;;3.20;86.64;96239.81;5061490;28;20512;-73
2024/02/26 04:02:56;;;;;;;11.00;6.90;;;3.80;85.60;;;3.18;86.13;96237.34;5049090;28;20461;-73
2024/02/26 04:05:24;;;;;;;10.40;6.67;;;3.80;85.80;;;3.19;86.54;96240.84;5066056;28;20436;-72
2024/02/26 04:07:51;;;;;;;9.03;5.90;;;3.80;85.80;;;3.09;87.26;96234.09;5053196;28;20461;-72
2024/02/26 04:10:19;;;;;;;8.63;6.40;;;3.80;85.70;;;3.09;86.85;96239.44;5044415;28;20465;-72
2024/02/26 04:12:46;;;;;;;10.60;6.13;;;3.80;85.60;;;3.15;87.16;96243.13;5044916;28;20805;-72
2024/02/26 04:15:13;;;;;;;10.60;6.97;;;3.80;85.80;;;3.19;87.03;96248.88;5043330;28;20562;-72
2024/02/26 04:17:41;;;;;;;11.73;6.47;;;3.80;85.50;;;3.11;86.69;96258.75;5045924;28;20441;-73
2024/02/26 04:20:15;;;;;;;11.00;6.47;;;3.80;85.50;;;3.14;87.71;96251.38;5045106;28;20454;-72
2024/02/26 04:22:44;;;;;;;9.37;6.70;;;3.70;85.90;;;3.23;86.75;96255.41;5044791;28;20461;-72
2024/02/26 04:25:11;;;;;;;11.40;6.97;;;3.80;85.90;;;3.21;86.35;96262.81;5041852;28;20460;-72
2024/02/26 04:27:38;;;;;;;10.33;6.23;;;3.80;85.90;;;3.28;86.58;96250.28;5061345;28;20447;-72
2024/02/26 04:30:07;;;;;;;9.20;6.50;;;3.80;85.90;;;3.32;85.77;96254.16;5051346;28;21105;-72
2024/02/26 04:32:35;;;;;;;9.83;6.50;;;3.90;85.50;;;3.28;85.89;96263.63;5047352;28;20455;-72
2024/02/26 04:35:03;;;;;;;10.03;6.10;;;4.00;85.30;;;3.28;86.30;96242.28;5067982;28;20548;-72
2024/02/26 04:37:30;;;;;;;7.60;6.00;;;4.00;85.10;;;3.23;85.66;96253.56;5051026;28;20997;-73
2024/02/26 04:40:04;;;;;;;8.23;5.37;;;4.00;84.60;;;3.24;85.49;96257.03;5053098;28;20470;-72
2024/02/26 04:42:31;;;;;;;7.73;6.20;;;4.00;84.50;;;3.19;85.34;96270.22;5053866;28;20460;-72
2024/02/26 04:44:58;;;;;;;7.57;5.50;;;4.00;84.30;;;3.20;85.72;96255.84;5048800;28;20450;-71
2024/02/26 04:47:26;;;;;;;7.40;5.50;;;4.00;84.30;;;3.27;84.98;96262.00;5080855;28;20457;-71
2024/02/26 04:49:53;;;;;;;7.00;5.60;;;4.00;84.10;;;3.32;84.64;96262.16;5048635;28;21091;-71
2024/02/26 04:52:21;;;;;;;9.83;6.00;;;4.10;84.00;;;3.34;84.63;96262.75;5047931;28;20527;-72
2024/02/26 04:54:48;;;;;;;9.17;6.20;;;4.10;83.80;;;3.32;84.83;96259.50;5052746;28;21008;-72
2024/02/26 04:57:18;;;;;;;7.00;5.13;;;4.10;83.70;;;2.82;84.39;96191.53;5042357;28;20507;-71
2024/02/26 04:59:46;;;;;;;7.50;5.20;;;4.10;83.30;;;3.24;84.65;96265.88;5078572;28;21277;-71
2024/02/26 05:02:13;;;;;;;6.93;5.40;;;4.10;83.10;;;3.23;84.11;96279.44;5047218;28;20913;-72
2024/02/26 05:04:40;;;;;;;7.30;4.93;;;4.10;83.20;;;3.28;83.53;96271.63;5048501;28;20449;-72
2024/02/26 05:07:08;;;;;;;7.97;4.70;;;4.10;83.10;;;3.33;83.75;96262.97;5044092;28;20500;-72
2024/02/26 05:09:36;;;;;;;11.27;6.63;;;4.10;82.80;;;3.29;83.81;96264.44;5053778;28;20460;-73
2024/02/26 05:12:05;;;;;;;7.80;5.13;;;4.10;82.80;;;3.25;83.13;96262.19;5056417;28;20491;-72
2024/02/26 05:14:34;;;;;;;5.30;4.40;;;4.10;82.60;;;3.10;83.96;96262.44;5032753;28;20450;-72
2024/02/26 05:17:02;;;;;;;5.20;4.30;;;4.00;82.50;;;3.19;83.30;96254.19;5053103;28;20488;-72
2024/02/26 05:19:29;;;;;;;7.17;4.30;;;4.00;82.40;;;3.17;83.46;96257.06;5044819;28;20483;-72
2024/02/26 05:21:57;;;;;;;5.70;4.87;;;4.00;82.30;;;3.11;83.35;96250.75;5058004;28;20464;-73
2024/02/26 05:24:24;;;;;;;5.27;4.50;;;4.00;82.30;;;3.11;83.05;96256.09;5064915;28;20454;-72
2024/02/26 05:26:51;;;;;;;5.17;4.37;;;4.00;82.10;;;3.10;83.07;96262.44;5047342;28;20462;-72
2024/02/26 05:29:18;;;;;;;8.00;4.73;;;4.00;82.00;;;3.26;83.07;96266.50;5053218;28;20448;-74
2024/02/26 05:31:47;;;;;;;7.53;4.87;;;4.00;82.10;;;3.30;82.58;96266.91;5047001;28;20461;-73
2024/02/26 05:34:14;;;;;;;5.30;4.33;;;4.00;82.10;;;3.33;82.60;96260.28;5052701;28;20443;-72
2024/02/26 05:36:41;;;;;;;9.13;4.33;;;4.00;82.20;;;3.10;81.60;96226.94;5060589;28;20969;-72
2024/02/26 05:39:10;;;;;;;6.13;4.57;;;4.10;82.00;;;3.39;82.05;96276.28;5051183;28;20518;-78
2024/02/26 05:41:38;;;;;;;6.33;4.80;;;4.10;81.70;;;3.45;81.82;96277.28;5057736;28;20451;-80
2024/02/26 05:44:05;;;;;;;5.50;4.30;;;4.10;81.70;;;3.39;81.42;96268.28;5058577;28;20529;-79
2024/02/26 05:46:33;;;;;;;4.63;4.07;;;4.20;81.90;;;3.47;81.02;96290.44;5056455;28;20445;-76
2024/02/26 05:49:01;;;;;;;5.70;4.73;;;4.20;81.50;;;3.47;80.53;96290.44;5042374;28;20443;-78
2024/02/26 05:51:28;;;;;;;5.60;4.07;;;4.20;81.40;;;3.47;80.89;96287.75;5058307;28;20555;-77
2024/02/26 05:53:55;;;;;;;6.10;5.10;;;4.30;81.30;;;3.66;80.12;96296.72;5063468;28;20476;-82
2024/02/26 05:56:23;;;;;;;6.10;4.07;;;4.30;81.40;;;3.71;80.44;96298.72;5059626;28;20484;-80
2024/02/26 05:58:50;;;;;;;6.10;4.70;;;4.30;81.50;;;3.74;79.94;96296.47;5055847;28;20487;-77
2024/02/26 06:01:18;;;;;;;7.23;5.17;;;4.30;80.90;;;3.66;79.80;96302.06;5062945;28;20463;-78
2024/02/26 06:03:45;;;;;;;6.00;4.90;;;4.30;81.00;;;3.60;80.30;96297.56;5071479;28;20962;-86
2024/02/26 06:06:15;;;;;;;8.83;4.77;;;4.30;80.80;;;3.52;80.37;96301.28;5053954;28;20450;-81
2024/02/26 06:08:42;;;;;;;6.60;4.77;;;4.30;81.00;;;3.37;81.15;96305.03;5043385;28;20452;-75
2024/02/26 06:11:09;;;;;;;5.40;4.90;;;4.20;80.80;;;3.43;81.10;96302.59;5062192;28;20443;-77
2024/02/26 06:13:37;;;;;;;7.53;4.60;;;4.20;81.10;;;3.50;80.81;96308.69;5051870;28;20988;-75
2024/02/26 06:16:05;;;;;;;7.60;5.47;;;4.30;81.10;;;3.59;80.96;96302.09;5041176;28;20489;-75
2024/02/26 06:18:36;;;;;;;5.90;5.30;;;4.30;81.00;;;3.49;80.74;96307.06;5040805;28;20492;-74
2024/02/26 06:21:04;;;;;;;5.63;5.07;;;4.30;80.80;;;3.00;80.63;96234.56;5049457;28;20532;-72
2024/02/26 06:23:33;;;;;;;5.40;4.33;;;4.20;80.80;;;3.57;80.68;96306.00;5065458;28;20439;-73
2024/02/26 06:26:00;;;;;;;6.47;4.40;;;4.30;80.90;;;3.57;80.38;96301.50;5048058;28;20458;-71
2024/02/26 06:28:33;;;;;;;5.77;5.17;;;4.30;80.60;;;3.60;80.03;96302.91;5039784;28;20461;-72
2024/02/26 06:31:00;;;;;;;7.20;5.30;;;4.40;80.40;;;3.70;79.49;96300.59;5046361;28;20449;-73
2024/02/26 06:33:29;;;;;;;5.00;4.47;;;4.50;80.30;;;3.56;79.83;96307.84;5041003;28;20857;-71
2024/02/26 06:35:56;;;;;;;7.30;4.60;;;4.50;80.20;;;3.74;78.89;96309.00;5048832;28;20503;-72
2024/02/26 06:38:23;;;;;;;5.67;5.10;;;4.50;80.30;;;3.75;78.67;96307.97;5055709;28;20458;-73
2024/02/26 06:40:54;;;;;;;5.40;4.50;;;4.50;80.00;;;3.69;79.04;96315.78;5045765;28;20450;-69
2024/02/26 06:43:21;;;;;;;6.17;4.93;;;4.50;80.20;;;3.86;80.63;96315.28;5030183;28;20459;-67
2024/02/26 06:45:50;;;;;;;7.10;5.00;;;4.60;80.80;;;4.03;79.57;96309.47;5039386;28;20499;-70
2024/02/26 06:48:17;;;;;;;6.13;5.03;;;4.70;80.70;;;4.22;78.72;96311.16;5062415;28;21133;-71
2024/02/26 06:50:44;;;;;;;7.43;5.50;;;4.80;80.80;;;3.88;78.73;96264.31;5036991;28;20448;-69
2024/02/26 06:53:11;;;;;;;6.37;5.30;;;4.90;80.40;;;4.18;78.35;96334.03;5040644;28;20497;-73
2024/02/26 06:55:40;;;;;;;6.50;5.03;;;4.90;79.90;;;4.21;77.29;96335.44;5039797;28;21352;-72
2024/02/26 06:58:09;;;;;;;5.23;4.57;;;4.90;79.60;;;4.34;78.26;96323.84;5039303;28;20445;-74
2024/02/26 07:00:36;;;;;;;7.27;4.97;;;5.00;80.20;;;4.10;77.53;96335.13;5034933;28;20466;-72
2024/02/26 07:03:04;;;;;;;7.20;5.27;;;5.00;79.10;;;4.29;77.69;96342.38;5041360;28;20437;-73
2024/02/26 07:05:32;;;;;;;8.57;5.40;;;4.90;79.30;;;4.63;76.48;96354.47;5044705;28;21294;-73
2024/02/26 07:07:59;;;;;;;10.23;5.07;;;5.10;79.80;;;4.39;75.88;96350.75;5040374;28;20446;-75
2024/02/26 07:10:26;;;;;;;8.23;5.10;;;5.20;78.80;;;4.42;76.71;96346.81;5044219;28;20445;-73
2024/02/26 07:12:53;;;;;;;8.43;5.43;;;5.20;78.90;;;4.28;77.09;96351.44;5038557;28;20454;-71
2024/02/26 07:15:22;;;;;;;6.10;5.00;;;5.10;78.60;;;4.18;76.89;96342.06;5019069;28;20462;-73
2024/02/26 07:17:49;;;;;;;7.53;5.10;;;5.10;78.70;;;4.30;76.28;96336.00;5043737;28;20453;-74
2024/02/26 07:20:18;;;;;;;6.93;5.10;;;5.10;78.60;;;4.31;75.85;96324.25;5039571;28;20539;-73
2024/02/26 07:22:45;;;;;;;7.00;4.83;;;5.10;78.40;;;4.24;76.23;96340.34;5056965;28;20450;-78
2024/02/26 07:25:13;;;;;;;7.03;5.37;;;5.10;78.20;;;4.28;77.02;96330.03;5041817;28;20469;-72
2024/02/26 07:27:40;;;;;;;6.60;4.93;;;5.00;78.50;;;4.27;76.64;96347.13;5039250;28;21043;-71
2024/02/26 07:30:13;;;;;;;7.53;5.07;;;5.10;78.20;;;4.38;76.65;96367.81;5043733;28;20574;-81
2024/02/26 07:32:42;;;;;;;7.63;5.87;;;5.20;78.60;;;4.55;76.27;96360.09;5043842;28;20943;-78
2024/02/26 07:35:09;;;;;;;8.40;5.50;;;5.30;78.60;;;5.06;75.59;96378.81;5046529;28;20454;-77
2024/02/26 07:37:37;;;;;;;9.13;5.77;;;5.50;78.80;;;5.17;73.77;96390.66;5031987;28;20533;-79
2024/02/26 07:40:08;;;;;;;8.23;6.53;;;5.80;78.00;;;4.98;74.32;96363.84;5034647;28;20508;-81
2024/02/26 07:42:35;;;;;;;10.00;5.30;;;5.80;77.30;;;5.02;73.24;96378.44;5043559;28;20437;-73
2024/02/26 07:45:05;;;;;;;6.67;5.37;;;5.80;77.20;;;5.21;72.73;96370.41;5041799;28;21024;-76
2024/02/26 07:47:34;;;;;;;7.37;5.80;;;5.90;77.40;;;5.27;73.07;96368.72;5042367;28;20505;-75
2024/02/26 07:50:03;;;;;;;7.87;4.87;;;6.00;76.90;;;5.43;71.99;96367.31;5067994;28;20526;-74
2024/02/26 07:52:33;;;;;;;6.37;5.40;;;6.10;76.60;;;5.39;71.73;96373.13;5052946;28;20455;-74
2024/02/26 07:55:01;;;;;;;7.13;5.23;;;6.20;76.30;;;5.56;72.09;96367.19;5067210;28;20454;-75
2024/02/26 07:57:27;;;;;;;8.00;5.87;;;6.20;76.20;;;5.81;70.28;96368.94;5042859;28;20480;-74
2024/02/26 07:59:54;;;;;;;5.20;4.70;;;6.50;76.00;;;5.75;70.14;96361.78;5040617;28;20960;-75
2024/02/26 08:02:22;;;;;;;6.10;5.37;;;6.50;75.50;;;5.70;70.37;96367.03;5041629;28;20456;-75
2024/02/26 08:04:50;;;;;;;9.20;5.83;;;6.50;75.30;;;5.85;70.34;96364.78;5041628;28;21025;-75
2024/02/26 08:07:20;;;;;;;6.27;5.33;;;6.60;75.30;;;5.86;70.22;96371.75;5041162;28;20471;-74
2024/02/26 08:09:47;;;;;;;6.60;5.67;;;6.60;75.00;;;5.48;70.27;96370.13;5043764;28;20451;-74
2024/02/26 08:12:14;;;;;;;8.20;5.90;;;6.50;74.50;;;5.66;70.11;96380.84;5052013;28;20837;-75
2024/02/26 08:14:42;;;;;;;5.00;4.50;;;6.40;74.70;;;5.62;69.41;96393.06;5078440;28;20492;-75
2024/02/26 08:17:09;;;;;;;6.73;4.80;;;6.50;74.50;;;5.88;68.76;96387.59;5046484;28;20486;-74
2024/02/26 08:19:37;;;;;;;7.13;4.90;;;6.60;74.40;;;6.12;67.86;96396.59;5036911;28;20875;-74
2024/02/26 08:22:04;;;;;;;5.20;4.50;;;6.70;74.20;;;6.34;67.95;96412.22;5078244;28;20465;-76
2024/02/26 08:24:33;;;;;;;6.63;5.00;;;6.90;74.10;;;6.20;67.80;96404.34;5047779;28;20459;-75
2024/02/26 08:27:00;;;;;;;5.37;4.40;;;6.90;73.60;;;6.34;67.23;96413.03;5069013;28;20453;-75
2024/02/26 08:29:28;;;;;;;6.87;5.53;;;7.00;73.70;;;6.28;67.65;96416.63;5039539;28;20447;-75
2024/02/26 08:31:55;;;;;;;7.13;5.73;;;7.00;73.50;;;6.02;68.42;96415.91;5070165;28;20456;-76
2024/02/26 08:34:22;;;;;;;6.60;5.40;;;6.80;73.60;;;5.86;68.73;96409.28;5061421;28;20452;-76
2024/02/26 08:36:50;;;;;;;7.43;6.00;;;6.80;73.60;;;6.12;68.79;96426.09;5075916;28;20467;-76
2024/02/26 08:39:18;;;;;;;6.10;5.37;;;6.90;73.90;;;6.03;68.89;96427.47;5045993;28;20448;-75
2024/02/26 08:41:46;;;;;;;10.13;7.07;;;6.80;74.00;;;6.05;68.98;96422.69;5040086;28;20478;-75
2024/02/26 08:44:14;;;;;;;7.97;6.20;;;6.80;73.90;;;5.85;69.95;96415.69;5040101;28;20929;-75
2024/02/26 08:46:41;;;;;;;6.70;5.43;;;6.70;74.00;;;6.01;69.55;96410.78;5077577;28;20458;-75
2024/02/26 08:49:08;;;;;;;9.10;5.87;;;6.80;74.20;;;6.10;69.55;96414.78;5039048;28;20467;-75
2024/02/26 08:51:36;;;;;;;6.50;5.13;;;6.80;74.10;;;6.19;68.65;96417.97;5041883;28;20533;-77
2024/02/26 08:54:03;;;;;;;6.10;5.40;;;6.90;73.90;;;6.23;68.72;96419.19;5040149;28;20457;-75
2024/02/26 08:56:30;;;;;;;8.70;6.03;;;6.90;73.70;;;6.41;68.01;96410.25;5047426;28;20476;-75
2024/02/26 08:59:03;;;;;;;6.83;4.97;;;7.00;73.80;;;6.71;67.12;96416.66;5040589;28;20461;-76
2024/02/26 09:01:30;;;;;;;7.43;5.60;;;7.20;73.70;;;6.98;66.30;96413.56;5044751;28;20509;-76
2024/02/26 09:03:57;;;;;;;8.67;6.20;;;7.40;73.30;;;7.05;65.54;96415.06;5042656;28;20545;-77
2024/02/26 09:06:25;;;;;;;8.43;5.50;;;7.60;72.70;;;7.25;65.16;96408.53;5075243;28;20466;-75
2024/02/26 09:08:52;;;;;;;6.73;5.20;;;7.80;72.40;;;7.44;65.07;96411.09;5074377;28;20583;-75
2024/02/26 09:11:19;;;;;;;6.97;5.27;;;7.90;72.30;;;7.79;62.95;96411.06;5047319;28;21302;-76
2024/02/26 09:13:46;;;;;;;7.30;5.30;;;8.30;71.80;;;7.75;62.88;96404.53;5070267;28;20450;-75
2024/02/26 09:16:15;;;;;;;8.33;4.83;;;8.40;70.80;;;7.96;61.84;96401.41;5068831;28;20494;-76
2024/02/26 09:18:42;;;;;;;4.97;4.50;;;8.50;70.40;;;7.63;62.55;96404.53;5042531;28;20456;-76
2024/02/26 09:21:09;;;;;;;5.70;5.20;;;8.40;69.90;;;7.69;62.18;96397.38;5069928;28;20466;-75
2024/02/26 09:23:36;;;;;;;6.17;4.80;;;8.40;70.00;;;8.13;61.27;96396.94;5042452;28;20475;-76
2024/02/26 09:26:06;;;;;;;5.77;4.43;;;8.70;69.80;;;8.20;60.95;96397.59;5043387;28;21056;-75
2024/02/26 09:28:37;;;;;;;5.40;4.13;;;8.90;69.20;;;8.50;60.08;96407.34;5039949;28;20454;-74
2024/02/26 09:31:06;;;;;;;5.03;4.20;;;9.10;68.60;;;8.07;60.45;96403.25;5059810;28;20502;-76
2024/02/26 09:33:35;;;;;;;6.20;4.73;;;9.00;67.50;;;8.85;58.50;96405.50;5046670;28;20447;-77
2024/02/26 09:36:02;;;;;;;4.27;3.87;;;9.20;68.00;;;8.63;58.07;96400.03;5077221;28;20472;-77
2024/02/26 09:38:31;;;;;;;4.30;3.90;;;9.40;66.80;;;8.77;58.24;96393.25;5039531;28;21279;-77
2024/02/26 09:40:58;;;;;;;8.47;4.50;;;9.40;66.50;;;8.81;58.20;96392.78;5041697;28;20554;-77
2024/02/26 09:43:35;;;;;;;5.40;3.97;;;9.40;66.50;;;9.21;57.46;96386.41;5044051;28;20464;-77
2024/02/26 09:46:03;;;;;;;4.97;3.83;;;9.80;66.20;;;9.55;56.45;96383.66;5058411;28;20451;-78
2024/02/26 09:48:31;;;;;;;5.40;3.67;;;10.00;64.70;;;9.12;56.12;96317.81;5043147;28;20514;-76
2024/02/26 09:50:59;;;;;;;5.60;3.70;;;10.10;64.10;;;8.98;56.67;96360.47;5060317;28;20686;-77
2024/02/26 09:53:28;;;;;;;4.30;3.90;;;9.90;64.40;;;8.82;57.48;96357.53;5046532;28;20783;-77
2024/02/26 09:55:55;;;;;;;4.70;4.10;;;9.70;64.80;;;8.76;58.05;96351.25;5044680;28;20455;-77
2024/02/26 09:58:23;;;;;;;7.43;4.43;;;9.60;65.00;;;8.70;57.58;96344.13;5042891;28;20455;-77
2024/02/26 10:00:58;;;;;;;3.80;3.40;;;9.50;64.70;;;8.98;57.71;96336.22;5042469;28;20468;-76
2024/02/26 10:03:29;;;;;;;5.57;4.23;;;9.60;65.10;;;9.25;56.58;96347.13;5043437;28;20544;-74
2024/02/26 10:05:58;;;;;;;4.20;3.40;;;9.90;64.20;;;9.23;55.77;96354.63;5041935;28;20454;-78
2024/02/26 10:08:28;;;;;;;4.80;4.07;;;10.00;62.70;;;9.39;55.75;96379.09;5056863;28;20485;-76
2024/02/26 10:10:56;;;;;;;4.30;3.80;;;10.00;62.40;;;9.04;56.46;96383.72;5045991;28;20501;-76
2024/02/26 10:13:23;;;;;;;5.80;3.80;;;9.90;63.30;;;8.96;56.75;96384.13;5036990;28;20516;-78
2024/02/26 10:15:51;;;;;;;6.73;4.17;;;9.80;63.70;;;9.17;56.06;96374.47;5040802;28;20457;-79
2024/02/26 10:18:19;;;;;;;6.53;3.80;;;9.90;63.70;;;9.59;55.32;96398.25;5041337;28;20944;-79
2024/02/26 10:21:01;;;;;;;4.30;3.90;;;10.10;62.70;;;9.81;53.83;96350.78;5042870;28;20457;-78
2024/02/26 10:23:29;;;;;;;5.00;4.30;;;10.50;62.10;;;10.03;53.84;96399.34;5043232;28;20572;-78
2024/02/26 10:25:57;;;;;;;4.43;3.63;;;10.70;61.40;;;10.04;53.51;96395.56;5037668;28;20449;-78
2024/02/26 10:28:25;;;;;;;5.87;3.60;;;10.70;61.10;;;10.05;53.61;96408.00;5040828;28;20448;-78
2024/02/26 10:30:53;;;;;;;5.00;4.50;;;10.70;60.90;;;10.21;52.87;96404.41;5041840;28;20502;-79
2024/02/26 10:33:21;;;;;;;4.50;3.80;;;10.80;60.80;;;10.61;52.36;96415.97;5040155;28;20572;-77